Time;durP1;ratioP1;P1;durP2;ratioP2;P2;SDS_P1;SDS_P2;PMS_P1;PMS_P2;Temp;Humidity;BMP_temperature;BMP_pressure;BME280_temperature;BME280_humidity;BME280_pressure;Samples;Min_cycle;Max_cycle;Signal;HPM_P1;HPM_P2
2022/10/30 06:03:06;;;;;;;19.77;10.43;;;;;;;13.33;100.00;101655.38;917974;22;21612;-73
2022/10/30 06:05:34;;;;;;;19.15;10.93;;;;;;;13.32;100.00;101656.56;5015978;28;20053;-73
2022/10/30 06:08:00;;;;;;;27.20;11.98;;;;;;;13.34;100.00;101648.56;5031481;28;20063;-73
2022/10/30 06:10:25;;;;;;;20.88;12.68;;;;;;;13.32;100.00;101648.91;5031483;28;20060;-73
2022/10/30 06:12:55;;;;;;;20.20;10.68;;;;;;;13.28;100.00;101647.22;5066788;23;20080;-73
2022/10/30 06:15:20;;;;;;;20.02;11.43;;;;;;;13.30;100.00;101653.31;5032759;28;20409;-73
2022/10/30 06:17:46;;;;;;;21.50;10.77;;;;;;;13.31;100.00;101654.94;5027257;28;20025;-73
2022/10/30 06:20:11;;;;;;;23.83;11.38;;;;;;;13.21;100.00;101657.16;5033782;28;20538;-74
2022/10/30 06:22:36;;;;;;;22.58;11.85;;;;;;;13.14;100.00;101665.50;5040838;28;20029;-73
2022/10/30 06:25:02;;;;;;;20.45;11.13;;;;;;;13.16;100.00;101668.72;5040835;28;20329;-73
2022/10/30 06:27:27;;;;;;;24.70;14.20;;;;;;;13.12;100.00;101670.69;5035758;28;20068;-73
2022/10/30 06:29:53;;;;;;;20.98;11.52;;;;;;;13.20;100.00;101668.81;5037560;28;20040;-73
2022/10/30 06:32:19;;;;;;;19.52;11.60;;;;;;;13.25;100.00;101670.47;5031888;28;20029;-73
2022/10/30 06:34:45;;;;;;;24.92;12.00;;;;;;;13.18;100.00;101660.75;5033005;28;20451;-73
2022/10/30 06:37:10;;;;;;;22.83;11.88;;;;;;;13.14;100.00;101664.69;5034992;28;20029;-73
2022/10/30 06:39:35;;;;;;;23.70;12.98;;;;;;;12.96;100.00;101655.94;5033567;28;20111;-73
2022/10/30 06:42:01;;;;;;;21.85;11.90;;;;;;;13.02;100.00;101662.88;5031839;28;20044;-73
2022/10/30 06:44:26;;;;;;;29.17;13.85;;;;;;;12.85;100.00;101664.19;5031500;28;20052;-73
2022/10/30 06:46:53;;;;;;;19.88;10.93;;;;;;;12.88;100.00;101651.38;5032910;28;20399;-73
2022/10/30 06:49:18;;;;;;;32.17;13.73;;;;;;;12.85;100.00;101640.91;5035261;28;20040;-74
2022/10/30 06:51:44;;;;;;;28.15;13.55;;;;;;;12.94;100.00;101644.25;5032740;28;20041;-74
2022/10/30 06:54:10;;;;;;;22.92;13.13;;;;;;;12.96;100.00;101641.88;5037764;28;20036;-73
2022/10/30 06:56:35;;;;;;;32.03;13.02;;;;;;;12.87;100.00;101641.34;5038312;28;20025;-73
2022/10/30 06:59:00;;;;;;;25.15;12.25;;;;;;;12.96;100.00;101639.06;5035872;28;20483;-73
2022/10/30 07:01:26;;;;;;;24.70;12.30;;;;;;;12.87;100.00;101638.53;5030544;28;20037;-74
2022/10/30 07:03:51;;;;;;;24.92;12.70;;;;;;;12.90;100.00;101638.59;5021945;28;20124;-74
2022/10/30 07:06:17;;;;;;;25.10;13.25;;;;;;;12.93;100.00;101637.03;5019550;28;20065;-73
2022/10/30 07:08:42;;;;;;;19.88;11.63;;;;;;;13.01;100.00;101650.81;5015615;28;20052;-73
2022/10/30 07:11:07;;;;;;;25.35;13.30;;;;;;;12.88;100.00;101640.13;5021888;28;20029;-73
2022/10/30 07:13:33;;;;;;;26.27;14.38;;;;;;;12.77;100.00;101646.38;5024808;28;20562;-73
2022/10/30 07:15:58;;;;;;;20.95;12.93;;;;;;;12.86;100.00;101648.13;5018234;28;20055;-73
2022/10/30 07:18:23;;;;;;;28.40;14.20;;;;;;;12.77;100.00;101649.19;5018558;28;20045;-73
2022/10/30 07:20:55;;;;;;;22.70;12.65;;;;;;;12.80;100.00;101656.88;5015461;28;20395;-73
2022/10/30 07:23:20;;;;;;;19.80;11.85;;;;;;;12.97;100.00;101654.78;5013171;28;20033;-73
2022/10/30 07:25:45;;;;;;;24.83;12.60;;;;;;;13.01;100.00;101658.44;5016606;28;20029;-73
2022/10/30 07:28:11;;;;;;;18.65;11.52;;;;;;;13.11;100.00;101659.81;5014963;28;20510;-73
2022/10/30 07:30:36;;;;;;;28.25;13.30;;;;;;;12.92;100.00;101658.72;5006620;28;20704;-73
2022/10/30 07:33:04;;;;;;;21.00;11.07;;;;;;;13.02;100.00;101658.06;5011190;28;20124;-73
2022/10/30 07:35:31;;;;;;;22.40;13.20;;;;;;;13.01;100.00;101662.06;5010691;28;20044;-73
2022/10/30 07:38:04;;;;;;;24.23;12.50;;;;;;;12.99;100.00;101669.25;5013652;28;20034;-74
2022/10/30 07:40:31;;;;;;;24.95;13.77;;;;;;;13.00;100.00;101665.25;5014127;28;20068;-73
2022/10/30 07:42:56;;;;;;;24.23;13.73;;;;;;;12.98;100.00;101667.63;5010690;28;20598;-73
2022/10/30 07:45:22;;;;;;;27.42;14.52;;;;;;;12.96;100.00;101665.16;5010290;28;20037;-73
2022/10/30 07:47:47;;;;;;;25.83;13.45;;;;;;;12.95;100.00;101674.00;5013868;28;20041;-73
2022/10/30 07:50:13;;;;;;;28.17;14.68;;;;;;;12.97;100.00;101680.06;5019154;28;20033;-73
2022/10/30 07:52:38;;;;;;;25.52;13.15;;;;;;;13.04;100.00;101670.94;5010699;28;20444;-73
2022/10/30 07:55:04;;;;;;;27.50;14.73;;;;;;;13.01;100.00;101667.69;5012911;28;20041;-73
2022/10/30 07:57:40;;;;;;;27.17;13.98;;;;;;;13.07;100.00;101671.00;5014931;28;20193;-73
2022/10/30 08:00:08;;;;;;;33.75;15.10;;;;;;;13.10;100.00;101670.25;5014575;28;20029;-73
2022/10/30 08:02:34;;;;;;;31.25;13.95;;;;;;;13.12;100.00;101673.47;5009641;28;20032;-74
2022/10/30 08:04:59;;;;;;;24.65;14.05;;;;;;;13.15;100.00;101660.66;5013188;28;20029;-73
2022/10/30 08:07:31;;;;;;;31.65;14.35;;;;;;;13.21;100.00;101664.78;5015412;28;20021;-73
2022/10/30 08:09:57;;;;;;;28.73;13.32;;;;;;;13.24;100.00;101664.06;5015641;28;20034;-73
2022/10/30 08:12:23;;;;;;;30.38;14.50;;;;;;;13.27;100.00;101668.91;5019472;28;20702;-73
2022/10/30 08:14:48;;;;;;;30.85;15.13;;;;;;;13.31;100.00;101663.38;5013374;28;20029;-73
2022/10/30 08:17:14;;;;;;;29.77;14.95;;;;;;;13.35;100.00;101667.06;5014004;28;20525;-73
2022/10/30 08:19:39;;;;;;;36.42;16.10;;;;;;;13.41;100.00;101668.38;5015709;28;20025;-73
2022/10/30 08:22:04;;;;;;;28.55;15.48;;;;;;;13.41;100.00;101668.38;5013459;28;20120;-74
2022/10/30 08:24:30;;;;;;;31.13;17.67;;;;;;;13.81;100.00;101669.75;5016912;28;20038;-73
2022/10/30 08:26:55;;;;;;;36.78;16.00;;;;;;;13.59;100.00;101668.63;5012794;28;20147;-73
2022/10/30 08:29:21;;;;;;;22.98;14.10;;;;;;;13.59;100.00;101666.59;5014835;28;20446;-73
2022/10/30 08:31:49;;;;;;;27.52;15.73;;;;;;;13.60;100.00;101662.63;5012861;28;20036;-73
2022/10/30 08:34:15;;;;;;;20.90;10.50;;;;;;;15.06;100.00;101655.44;5012261;28;20392;-73
2022/10/30 08:36:41;;;;;;;27.58;12.18;;;;;;;16.17;100.00;101658.94;5012649;28;20747;-73
2022/10/30 08:39:06;;;;;;;30.40;12.73;;;;;;;16.43;100.00;101661.47;5014947;28;20036;-73
2022/10/30 08:41:31;;;;;;;18.08;9.68;;;;;;;17.04;100.00;101657.97;5015305;28;20563;-73
2022/10/30 08:43:57;;;;;;;22.23;9.60;;;;;;;17.20;100.00;101658.38;5008447;28;20045;-73
2022/10/30 08:46:22;;;;;;;19.85;12.07;;;;;;;17.42;100.00;101655.50;5008951;28;20041;-74
2022/10/30 08:48:54;;;;;;;22.70;10.88;;;;;;;17.47;100.00;101664.38;5010671;28;20049;-75
2022/10/30 08:51:19;;;;;;;21.15;10.65;;;;;;;17.54;100.00;101657.91;5012924;28;20456;-73
2022/10/30 08:53:48;;;;;;;21.92;10.90;;;;;;;17.53;100.00;101659.13;5007811;28;20087;-73
2022/10/30 08:56:14;;;;;;;31.15;11.15;;;;;;;17.57;100.00;101665.59;5011056;28;20034;-74
2022/10/30 08:58:39;;;;;;;29.23;14.25;;;;;;;16.18;100.00;101660.59;5011726;28;20539;-75
2022/10/30 09:01:06;;;;;;;26.80;14.82;;;;;;;15.22;100.00;101656.78;5011384;28;21930;-75
2022/10/30 09:03:31;;;;;;;26.05;14.90;;;;;;;15.02;100.00;101661.03;5014143;28;20021;-75
2022/10/30 09:05:58;;;;;;;27.63;14.43;;;;;;;14.83;100.00;101653.63;5025212;28;20025;-75
2022/10/30 09:08:24;;;;;;;29.60;15.27;;;;;;;14.80;100.00;101652.41;5015643;28;20122;-75
2022/10/30 09:10:57;;;;;;;30.77;14.95;;;;;;;14.81;100.00;101654.00;5012569;28;20037;-75
2022/10/30 09:13:23;;;;;;;26.67;15.45;;;;;;;14.82;100.00;101658.47;5008230;28;20132;-75
2022/10/30 09:15:51;;;;;;;32.53;16.00;;;;;;;14.82;100.00;101650.00;5026696;28;20048;-75
2022/10/30 09:18:17;;;;;;;30.00;16.05;;;;;;;14.86;100.00;101654.84;5011304;28;20053;-76
2022/10/30 09:20:43;;;;;;;28.20;14.48;;;;;;;14.82;100.00;101661.28;5016357;28;20147;-74
2022/10/30 09:23:08;;;;;;;32.00;14.68;;;;;;;14.94;100.00;101662.19;5025210;28;20040;-75
2022/10/30 09:25:34;;;;;;;36.55;17.35;;;;;;;15.01;100.00;101663.06;5020584;28;20168;-75
2022/10/30 09:27:59;;;;;;;30.70;16.30;;;;;;;15.09;100.00;101660.28;5022020;28;20031;-74
2022/10/30 09:30:25;;;;;;;33.20;15.55;;;;;;;15.01;100.00;101667.88;5021734;28;20057;-74
2022/10/30 09:32:58;;;;;;;28.40;15.10;;;;;;;15.11;100.00;101663.53;5021289;28;20056;-74
2022/10/30 09:35:24;;;;;;;23.73;13.38;;;;;;;15.35;100.00;101667.75;5017650;28;20107;-74
2022/10/30 09:37:49;;;;;;;35.42;17.35;;;;;;;15.29;100.00;101656.03;5024289;28;20076;-74
2022/10/30 09:40:45;;;;;;;31.67;16.35;;;;;;;15.41;100.00;101655.72;5026877;28;20123;-75
2022/10/30 09:43:33;;;;;;;33.00;14.70;;;;;;;15.51;100.00;101659.00;5012632;28;20037;-74
2022/10/30 09:46:31;;;;;;;30.30;16.05;;;;;;;15.44;100.00;101673.88;5019884;28;20033;-75
2022/10/30 09:49:33;;;;;;;28.15;14.32;;;;;;;15.50;100.00;101672.28;5020768;28;20472;-74
2022/10/30 09:52:20;;;;;;;31.52;15.35;;;;;;;15.47;100.00;101669.44;4993937;28;20504;-75
2022/10/30 09:55:03;;;;;;;29.02;15.90;;;;;;;15.65;100.00;101665.53;5013635;28;20025;-75
2022/10/30 09:57:36;;;;;;;;;;;;;;;15.75;100.00;101666.03;5016461;28;20034;-75
2022/10/30 10:00:09;;;;;;;33.80;14.77;;;;;;;15.94;100.00;101654.44;5032120;28;19949;-74
2022/10/30 10:02:45;;;;;;;26.23;13.63;;;;;;;16.01;100.00;101668.56;5013841;28;20037;-74
2022/10/30 10:05:19;;;;;;;31.98;15.15;;;;;;;15.97;100.00;101661.31;5017510;28;20108;-74
2022/10/30 10:07:49;;;;;;;29.67;15.32;;;;;;;16.11;100.00;101658.53;5017863;28;20278;-75
2022/10/30 10:10:36;;;;;;;26.83;13.57;;;;;;;16.20;100.00;101661.00;5016735;28;20054;-75
2022/10/30 10:13:03;;;;;;;23.30;12.65;;;;;;;16.34;100.00;101652.56;5020011;28;20058;-74
2022/10/30 10:15:40;;;;;;;31.90;13.88;;;;;;;16.46;100.00;101663.50;5016603;28;20050;-75
2022/10/30 10:18:16;;;;;;;28.27;14.30;;;;;;;16.32;100.00;101654.16;5014170;28;20025;-75
2022/10/30 10:20:45;;;;;;;29.35;15.00;;;;;;;16.56;100.00;101659.06;5019983;28;20034;-74
2022/10/30 10:23:17;;;;;;;28.02;14.35;;;;;;;16.67;100.00;101662.75;5034921;28;20480;-77
2022/10/30 10:25:51;;;;;;;33.70;15.40;;;;;;;16.42;100.00;101671.16;5018957;28;20033;-74
2022/10/30 10:29:12;;;;;;;27.02;12.90;;;;;;;16.53;100.00;101667.53;5015651;28;21418;-75
2022/10/30 10:32:31;;;;;;;22.90;11.98;;;;;;;16.48;100.00;101668.75;4936768;28;20084;-75
2022/10/30 10:35:34;;;;;;;28.40;12.95;;;;;;;16.79;100.00;101666.38;5015784;28;20543;-75
2022/10/30 10:38:21;;;;;;;28.10;12.85;;;;;;;16.85;100.00;101673.28;5019542;28;20038;-75
2022/10/30 10:41:07;;;;;;;27.65;12.50;;;;;;;16.73;100.00;101671.63;5011660;28;20021;-75
2022/10/30 10:44:00;;;;;;;27.58;11.55;;;;;;;16.86;100.00;101670.06;5017357;28;20101;-74
2022/10/30 10:46:34;;;;;;;29.52;10.30;;;;;;;17.02;100.00;101677.34;5017694;28;20544;-75
2022/10/30 10:49:36;;;;;;;20.98;10.23;;;;;;;17.04;100.00;101677.75;5010316;28;20033;-75
2022/10/30 10:52:07;;;;;;;25.98;10.80;;;;;;;17.06;100.00;101669.69;5008536;28;20124;-76
2022/10/30 10:54:44;;;;;;;20.60;10.90;;;;;;;17.18;100.00;101669.28;5016686;28;20125;-75
2022/10/30 10:57:22;;;;;;;25.73;12.57;;;;;;;17.23;100.00;101663.19;5014773;28;20034;-74
2022/10/30 10:59:53;;;;;;;18.63;10.32;;;;;;;17.44;99.60;101664.41;5019979;28;20044;-75
2022/10/30 11:02:43;;;;;;;25.05;10.75;;;;;;;17.57;98.83;101659.13;5009922;28;20064;-75
2022/10/30 11:05:38;;;;;;;15.57;9.35;;;;;;;17.63;100.00;101658.28;5011769;28;20091;-75
2022/10/30 11:08:14;;;;;;;25.15;11.25;;;;;;;17.58;98.90;101661.56;5016074;28;20084;-74
2022/10/30 11:10:39;;;;;;;18.83;10.73;;;;;;;17.61;98.96;101666.38;5013455;28;20259;-75
2022/10/30 11:13:04;;;;;;;24.83;10.30;;;;;;;17.86;97.48;101666.34;5007253;28;20054;-76
2022/10/30 11:15:51;;;;;;;28.60;10.75;;;;;;;17.90;97.21;101655.03;5011679;28;20344;-75
2022/10/30 11:18:17;;;;;;;25.48;10.63;;;;;;;18.10;96.48;101649.66;5012791;28;20065;-75
2022/10/30 11:21:03;;;;;;;20.77;10.82;;;;;;;18.19;95.36;101649.22;5013173;28;20145;-75
2022/10/30 11:23:45;;;;;;;17.25;8.85;;;;;;;18.19;94.09;101649.22;5014772;28;20864;-75
2022/10/30 11:26:14;;;;;;;18.73;8.52;;;;;;;18.15;94.98;101645.59;5017311;28;20049;-76
2022/10/30 11:28:49;;;;;;;25.85;10.98;;;;;;;18.36;94.90;101631.34;5019413;28;20041;-75
2022/10/30 11:31:22;;;;;;;24.13;10.43;;;;;;;18.26;93.95;101637.88;5014787;28;20033;-75
2022/10/30 11:33:49;;;;;;;18.08;8.20;;;;;;;18.20;94.63;101639.50;5013812;28;20064;-75
2022/10/30 11:36:17;;;;;;;23.27;8.73;;;;;;;18.13;93.34;101643.19;5031577;28;20499;-75
2022/10/30 11:38:42;;;;;;;24.83;10.45;;;;;;;18.03;94.24;101627.03;5018775;28;20044;-75
2022/10/30 11:41:11;;;;;;;18.60;9.93;;;;;;;18.18;93.05;101644.78;5016898;28;20022;-75
2022/10/30 11:43:38;;;;;;;21.98;10.65;;;;;;;18.08;95.17;101633.06;5011293;28;20069;-75
2022/10/30 11:46:08;;;;;;;18.63;10.35;;;;;;;18.12;96.07;101632.25;5014725;28;20026;-75
2022/10/30 11:48:38;;;;;;;21.45;11.13;;;;;;;18.22;96.81;101642.75;5030672;28;20021;-75
2022/10/30 11:51:04;;;;;;;25.77;10.15;;;;;;;18.18;93.83;101639.13;5016010;28;20053;-75
2022/10/30 11:53:38;;;;;;;24.13;10.50;;;;;;;18.19;93.68;101637.88;5015285;28;20057;-75
2022/10/30 11:56:14;;;;;;;19.35;9.30;;;;;;;18.23;93.38;101635.84;5022548;28;20388;-75
2022/10/30 11:58:44;;;;;;;26.23;11.70;;;;;;;18.15;93.69;101620.09;5034761;28;20025;-75
2022/10/30 12:01:28;;;;;;;21.92;11.15;;;;;;;18.19;94.89;101620.88;5029150;28;20539;-75
2022/10/30 12:03:55;;;;;;;23.70;10.15;;;;;;;18.19;93.81;101618.84;5020790;28;20108;-74
2022/10/30 12:06:26;;;;;;;28.33;10.43;;;;;;;18.32;94.06;101618.38;5029778;28;20481;-75
2022/10/30 12:09:08;;;;;;;23.75;10.48;;;;;;;18.46;93.96;101613.44;5026510;28;20398;-75
2022/10/30 12:11:36;;;;;;;28.92;12.70;;;;;;;18.42;94.46;101614.69;5028513;28;20021;-75
2022/10/30 12:14:02;;;;;;;23.13;12.38;;;;;;;18.46;95.57;101609.78;5028055;28;20064;-75
2022/10/30 12:16:28;;;;;;;31.70;14.25;;;;;;;18.40;96.16;101609.41;5011557;28;20031;-75
2022/10/30 12:19:07;;;;;;;28.70;12.90;;;;;;;18.36;96.01;101600.16;5028439;28;20480;-75
2022/10/30 12:21:39;;;;;;;30.02;14.13;;;;;;;18.34;96.38;101613.94;5022647;28;20025;-75
2022/10/30 12:24:13;;;;;;;30.95;15.25;;;;;;;18.35;96.52;101611.91;5044100;28;20029;-75
2022/10/30 12:26:39;;;;;;;27.45;14.30;;;;;;;18.35;97.30;101611.91;5025933;28;20033;-76
2022/10/30 12:29:13;;;;;;;28.35;15.07;;;;;;;18.44;97.06;101610.19;5027205;28;20029;-75
2022/10/30 12:31:45;;;;;;;25.52;14.35;;;;;;;18.39;96.49;101612.69;5020651;28;20641;-76
2022/10/30 12:34:26;;;;;;;32.70;16.15;;;;;;;18.45;96.57;101611.03;5029234;28;20026;-75
2022/10/30 12:37:18;;;;;;;30.77;15.27;;;;;;;18.46;96.28;101607.75;5023925;28;20393;-74
2022/10/30 12:39:52;;;;;;;32.13;17.00;;;;;;;18.50;96.14;101607.75;5014543;28;20499;-75
2022/10/30 12:42:21;;;;;;;32.35;15.00;;;;;;;18.51;97.09;101606.53;5037152;28;20447;-75
2022/10/30 12:45:11;;;;;;;29.80;16.08;;;;;;;18.54;96.06;101613.41;5040112;28;20511;-75
2022/10/30 12:47:58;;;;;;;32.20;15.27;;;;;;;18.53;95.55;101617.44;5019614;28;20120;-75
2022/10/30 12:50:39;;;;;;;31.95;16.88;;;;;;;18.45;96.14;101603.31;5024830;28;20052;-75
2022/10/30 12:53:09;;;;;;;31.67;15.93;;;;;;;18.60;96.14;101601.19;5014292;28;20025;-76
2022/10/30 12:56:06;;;;;;;34.95;15.45;;;;;;;18.67;94.51;101603.97;4993592;28;20022;-75
2022/10/30 12:58:52;;;;;;;36.30;15.75;;;;;;;18.55;94.54;101606.50;5016186;28;20524;-75
2022/10/30 13:01:36;;;;;;;28.52;14.32;;;;;;;18.51;95.32;101600.03;5003826;28;20528;-75
2022/10/30 13:04:10;;;;;;;27.25;16.00;;;;;;;18.66;95.47;101595.91;4999150;28;20037;-75
2022/10/30 13:06:48;;;;;;;33.45;14.43;;;;;;;18.62;94.87;101586.59;5015660;28;20022;-76
2022/10/30 13:09:43;;;;;;;35.03;15.63;;;;;;;18.65;95.19;101583.72;5044469;28;20479;-75
2022/10/30 13:12:15;;;;;;;28.13;14.73;;;;;;;18.67;95.50;101589.00;5013880;28;20210;-75
2022/10/30 13:14:58;;;;;;;39.70;16.90;;;;;;;18.58;96.27;101583.00;5028707;28;20417;-76
2022/10/30 13:17:23;;;;;;;32.35;15.32;;;;;;;18.55;97.38;101586.66;5020911;28;20032;-75
2022/10/30 13:19:49;;;;;;;31.35;16.05;;;;;;;18.64;96.64;101590.63;5024272;28;20441;-75
2022/10/30 13:22:31;;;;;;;34.22;16.35;;;;;;;18.52;96.82;101576.94;5021173;28;20029;-76
2022/10/30 13:25:00;;;;;;;31.63;15.23;;;;;;;18.42;97.46;101583.50;5017023;28;20076;-75
2022/10/30 13:28:03;;;;;;;34.50;17.70;;;;;;;18.37;98.48;101584.75;5023789;28;20037;-76
2022/10/30 13:30:38;;;;;;;35.60;15.43;;;;;;;18.41;98.25;101585.53;5026293;28;20558;-75
2022/10/30 13:33:18;;;;;;;28.15;15.88;;;;;;;18.34;99.07;101588.44;5026066;28;20254;-75
2022/10/30 13:36:13;;;;;;;30.17;16.90;;;;;;;18.36;99.06;101597.31;5018013;28;20052;-75
2022/10/30 13:39:01;;;;;;;33.85;16.08;;;;;;;18.27;99.27;101594.13;5020706;28;20034;-75
2022/10/30 13:41:57;;;;;;;33.33;16.60;;;;;;;18.38;98.80;101586.34;5014504;28;20038;-74
2022/10/30 13:44:40;;;;;;;32.17;17.80;;;;;;;18.33;98.79;101578.28;5023900;28;20026;-75
2022/10/30 13:47:24;;;;;;;30.95;14.77;;;;;;;18.29;98.86;101575.47;5024506;28;20036;-75
2022/10/30 13:50:07;;;;;;;30.27;14.95;;;;;;;18.28;98.33;101567.41;5024543;28;20018;-75
2022/10/30 13:52:36;;;;;;;33.00;14.95;;;;;;;18.29;98.58;101564.16;5019776;28;20389;-75
2022/10/30 13:55:24;;;;;;;33.10;15.43;;;;;;;18.28;98.73;101567.41;5023996;28;20079;-75
2022/10/30 13:58:00;;;;;;;34.97;16.60;;;;;;;18.26;99.16;101567.03;5020554;28;20033;-75
2022/10/30 14:00:43;;;;;;;33.17;16.23;;;;;;;18.35;98.55;101558.06;5022944;28;20026;-75
2022/10/30 14:03:25;;;;;;;34.72;15.45;;;;;;;18.31;98.67;101557.28;5010232;28;20028;-75
2022/10/30 14:06:01;;;;;;;35.97;16.45;;;;;;;18.34;97.93;101550.75;5020848;28;20029;-75
2022/10/30 14:08:27;;;;;;;32.67;15.55;;;;;;;18.36;98.61;101556.81;5018633;28;20440;-75
2022/10/30 14:10:56;;;;;;;29.00;15.60;;;;;;;18.47;97.41;101547.03;5022522;28;20061;-75
2022/10/30 14:13:40;;;;;;;32.97;15.25;;;;;;;18.41;97.35;101550.72;5025681;28;20072;-75
2022/10/30 14:16:06;;;;;;;31.50;14.70;;;;;;;18.39;96.66;101548.28;5017920;28;20053;-75
2022/10/30 14:18:59;;;;;;;31.30;16.08;;;;;;;18.40;96.68;101557.59;5025473;28;20040;-75
2022/10/30 14:21:39;;;;;;;30.77;15.70;;;;;;;18.22;98.13;101558.53;5025030;28;20518;-75
2022/10/30 14:24:21;;;;;;;30.27;15.35;;;;;;;18.19;98.81;101558.53;5024880;28;20018;-75
2022/10/30 14:26:53;;;;;;;35.47;19.35;;;;;;;18.09;98.35;101554.56;5016518;28;20087;-75
2022/10/30 14:29:31;;;;;;;;;;;;;;;17.98;100.00;101570.81;5026661;28;20476;-75
2022/10/30 14:31:56;;;;;;;26.33;15.88;;;;;;;17.94;100.00;101575.69;5016641;28;19917;-75
2022/10/30 14:34:55;;;;;;;35.67;17.95;;;;;;;17.75;100.00;101569.28;5009835;28;20146;-75
2022/10/30 14:37:26;;;;;;;33.03;15.70;;;;;;;17.62;100.00;101568.91;5008430;28;20507;-76
2022/10/30 14:39:54;;;;;;;29.92;16.08;;;;;;;17.55;100.00;101568.94;5009413;28;20029;-75
2022/10/30 14:42:38;;;;;;;33.20;17.73;;;;;;;17.44;100.00;101565.34;5012256;28;20512;-76
2022/10/30 14:45:21;;;;;;;36.67;16.38;;;;;;;17.48;100.00;101571.81;5016182;28;20489;-75
2022/10/30 14:48:25;;;;;;;30.65;14.90;;;;;;;17.41;100.00;101577.47;5014134;28;20195;-76
2022/10/30 14:51:10;;;;;;;30.58;14.90;;;;;;;17.36;100.00;101580.72;5018469;28;20057;-76
2022/10/30 14:53:52;;;;;;;30.05;14.27;;;;;;;17.31;100.00;101583.94;5013797;28;20535;-76
2022/10/30 14:56:22;;;;;;;32.00;17.13;;;;;;;17.17;100.00;101591.25;5010876;28;20026;-74
2022/10/30 14:59:20;;;;;;;32.88;14.93;;;;;;;17.17;100.00;101590.47;5017145;28;20507;-75
2022/10/30 15:02:11;;;;;;;34.08;15.10;;;;;;;17.10;100.00;101584.78;5017820;28;20071;-74
2022/10/30 15:04:42;;;;;;;27.48;14.68;;;;;;;17.12;100.00;101583.19;5014296;28;20033;-74
2022/10/30 15:07:21;;;;;;;29.10;15.95;;;;;;;17.19;100.00;101580.34;5019860;28;20082;-74
2022/10/30 15:09:52;;;;;;;33.30;16.77;;;;;;;17.31;100.00;101581.13;5021837;28;20128;-75
2022/10/30 15:12:42;;;;;;;38.53;16.33;;;;;;;17.22;100.00;101588.03;5015058;28;20041;-75
2022/10/30 15:15:14;;;;;;;35.83;17.77;;;;;;;17.28;100.00;101586.38;5009003;28;20040;-74
2022/10/30 15:17:42;;;;;;;33.63;18.23;;;;;;;17.24;100.00;101596.94;5017927;28;20112;-74
2022/10/30 15:20:21;;;;;;;36.55;17.33;;;;;;;17.25;100.00;101606.22;5020009;28;20021;-74
2022/10/30 15:22:48;;;;;;;34.92;17.13;;;;;;;17.19;100.00;101605.81;5015158;28;20491;-74
2022/10/30 15:25:20;;;;;;;37.38;16.58;;;;;;;17.24;100.00;101596.94;5018895;28;20072;-74
2022/10/30 15:27:50;;;;;;;31.17;16.88;;;;;;;17.20;100.00;101593.28;5010422;28;20061;-74
2022/10/30 15:30:21;;;;;;;30.10;16.80;;;;;;;17.25;100.00;101601.34;5019348;28;20460;-74
2022/10/30 15:32:47;;;;;;;34.35;17.95;;;;;;;17.23;100.00;101600.97;5015162;28;20053;-74
2022/10/30 15:35:13;;;;;;;36.60;16.83;;;;;;;17.19;100.00;101583.19;5016451;28;20116;-74
2022/10/30 15:37:39;;;;;;;26.00;15.00;;;;;;;17.13;100.00;101573.50;5017789;28;21477;-74
2022/10/30 15:40:18;;;;;;;30.15;14.82;;;;;;;17.02;100.00;101567.84;5021540;28;20499;-74
2022/10/30 15:42:46;;;;;;;28.80;15.50;;;;;;;16.98;100.00;101563.41;5018969;28;20111;-74
2022/10/30 15:45:18;;;;;;;34.42;15.40;;;;;;;16.93;100.00;101563.81;5019578;28;20481;-74
2022/10/30 15:47:47;;;;;;;30.20;15.40;;;;;;;16.87;100.00;101571.91;5023612;28;20033;-74
2022/10/30 15:50:13;;;;;;;29.27;15.23;;;;;;;16.86;100.00;101575.94;5020374;28;20156;-73
2022/10/30 15:52:41;;;;;;;39.80;17.23;;;;;;;16.83;100.00;101569.06;5020620;28;20026;-74
2022/10/30 15:55:12;;;;;;;28.92;15.32;;;;;;;16.80;100.00;101572.72;5024113;28;20081;-74
2022/10/30 15:57:43;;;;;;;29.05;15.35;;;;;;;16.73;100.00;101581.16;5018776;28;21731;-74
2022/10/30 16:00:24;;;;;;;28.73;15.27;;;;;;;16.76;100.00;101591.69;5015962;28;20034;-74
2022/10/30 16:03:03;;;;;;;35.78;16.40;;;;;;;16.73;100.00;101595.28;5012823;28;20034;-74
2022/10/30 16:05:30;;;;;;;29.23;15.63;;;;;;;16.75;100.00;101609.84;5020237;28;20095;-74
2022/10/30 16:07:57;;;;;;;25.42;15.27;;;;;;;16.73;100.00;101617.09;5021462;28;20123;-74
2022/10/30 16:10:26;;;;;;;29.85;16.63;;;;;;;16.69;100.00;101617.09;5022319;28;20037;-73
2022/10/30 16:12:54;;;;;;;34.25;15.88;;;;;;;16.66;100.00;101612.25;5016715;28;20092;-74
2022/10/30 16:15:29;;;;;;;25.00;14.70;;;;;;;16.68;100.00;101615.50;5016403;28;20037;-74
2022/10/30 16:18:23;;;;;;;32.92;16.35;;;;;;;16.62;100.00;101623.56;5012532;28;20064;-74
2022/10/30 16:20:52;;;;;;;26.58;15.30;;;;;;;16.59;100.00;101630.03;5012569;28;20620;-74
2022/10/30 16:23:19;;;;;;;25.80;14.63;;;;;;;16.52;100.00;101626.38;5028826;28;20744;-73
2022/10/30 16:25:45;;;;;;;35.70;14.70;;;;;;;16.50;100.00;101621.09;5022886;28;20049;-74
2022/10/30 16:28:26;;;;;;;28.13;16.05;;;;;;;16.40;100.00;101634.03;5019078;28;20059;-73
2022/10/30 16:30:51;;;;;;;30.88;15.10;;;;;;;16.43;100.00;101638.06;5017297;28;20980;-74
2022/10/30 16:33:23;;;;;;;35.38;15.30;;;;;;;16.45;100.00;101639.28;5021008;28;20032;-73
2022/10/30 16:35:50;;;;;;;27.70;15.38;;;;;;;16.49;100.00;101636.47;5017349;28;20044;-74
2022/10/30 16:38:17;;;;;;;25.80;14.38;;;;;;;16.49;100.00;101638.47;5022188;28;20041;-74
2022/10/30 16:40:42;;;;;;;29.02;16.67;;;;;;;16.45;100.00;101639.28;5018443;28;20021;-74
2022/10/30 16:43:24;;;;;;;29.35;14.20;;;;;;;16.44;100.00;101646.16;5015402;28;20032;-74
2022/10/30 16:45:50;;;;;;;29.67;15.00;;;;;;;16.41;100.00;101652.56;5020684;28;20544;-74
2022/10/30 16:48:23;;;;;;;25.27;13.43;;;;;;;16.39;100.00;101655.00;5021458;28;20471;-74
2022/10/30 16:50:48;;;;;;;34.33;15.65;;;;;;;16.35;100.00;101659.81;5014391;28;20305;-74
2022/10/30 16:53:19;;;;;;;27.77;14.45;;;;;;;16.37;100.00;101671.53;5013855;28;20030;-74
2022/10/30 16:55:45;;;;;;;31.63;15.20;;;;;;;16.31;100.00;101659.00;5016859;28;20026;-75
2022/10/30 16:58:13;;;;;;;23.33;13.13;;;;;;;16.31;100.00;101673.13;5021967;28;20033;-75
2022/10/30 17:00:40;;;;;;;25.88;14.05;;;;;;;16.31;100.00;101675.94;5020638;28;20257;-75
2022/10/30 17:03:09;;;;;;;30.88;14.38;;;;;;;16.34;100.00;101674.34;5006715;28;20092;-74
2022/10/30 17:05:36;;;;;;;27.35;13.52;;;;;;;16.29;100.00;101678.38;5015606;28;20040;-74
2022/10/30 17:08:21;;;;;;;25.58;12.80;;;;;;;16.27;100.00;101675.13;5014545;28;20540;-74
2022/10/30 17:10:46;;;;;;;24.70;14.55;;;;;;;16.24;100.00;101690.88;4998057;28;20123;-74
2022/10/30 17:13:53;;;;;;;31.48;14.90;;;;;;;16.20;100.00;101692.06;5016596;28;20053;-74
2022/10/30 17:16:24;;;;;;;27.63;14.43;;;;;;;16.16;100.00;101692.03;4934454;28;20617;-74
2022/10/30 17:18:51;;;;;;;27.90;14.43;;;;;;;16.18;100.00;101705.78;4932801;28;20044;-75
2022/10/30 17:21:21;;;;;;;28.83;13.57;;;;;;;16.12;100.00;101710.19;4977693;28;20077;-73
2022/10/30 17:23:51;;;;;;;25.80;14.43;;;;;;;16.11;100.00;101712.19;5018386;28;20076;-73
2022/10/30 17:26:17;;;;;;;32.25;15.45;;;;;;;16.12;100.00;101715.81;5020203;28;20136;-74
2022/10/30 17:28:44;;;;;;;29.65;15.48;;;;;;;16.13;100.00;101715.44;5024351;28;20037;-74
2022/10/30 17:31:24;;;;;;;29.65;15.02;;;;;;;16.11;100.00;101728.34;5023004;28;20104;-73
2022/10/30 17:34:01;;;;;;;28.38;16.23;;;;;;;16.12;100.00;101724.31;5019360;28;20079;-74